createdAt,value
2019-04-11T00:01:56.653Z,38.20
2019-04-11T00:04:52.549Z,38.20
2019-04-11T00:07:48.834Z,38.20
2019-04-11T00:10:44.967Z,38.20
2019-04-11T00:13:39.444Z,38.30
2019-04-11T00:16:34.802Z,38.50
2019-04-11T00:19:30.072Z,38.50
2019-04-11T00:22:25.668Z,38.70
2019-04-11T00:25:21.472Z,38.80
2019-04-11T00:28:17.390Z,39.00
2019-04-11T00:31:14.632Z,39.20
2019-04-11T00:34:09.419Z,39.40
2019-04-11T00:37:05.159Z,39.50
2019-04-11T00:40:01.793Z,39.70
2019-04-11T00:42:58.635Z,39.80
2019-04-11T00:45:54.076Z,40.10
2019-04-11T00:48:50.325Z,40.20
2019-04-11T00:51:46.292Z,40.40
2019-04-11T00:54:41.454Z,40.60
2019-04-11T00:57:37.065Z,40.60
2019-04-11T01:00:33.282Z,40.90
2019-04-11T01:03:28.616Z,41.00
2019-04-11T01:06:23.992Z,41.10
2019-04-11T01:09:20.112Z,41.20
2019-04-11T01:12:16.463Z,41.20
2019-04-11T01:15:13.337Z,41.30
2019-04-11T01:18:09.749Z,41.20
2019-04-11T01:21:04.711Z,41.30
2019-04-11T01:24:00.228Z,41.30
2019-04-11T01:26:57.264Z,41.40
2019-04-11T01:29:52.258Z,41.50
2019-04-11T01:32:48.614Z,41.30
2019-04-11T01:35:43.703Z,41.10
2019-04-11T01:38:44.323Z,40.90
2019-04-11T01:41:39.507Z,40.80
2019-04-11T01:44:35.283Z,40.80
2019-04-11T01:47:45.027Z,40.80
2019-04-11T01:50:41.197Z,40.70
2019-04-11T01:53:37.258Z,40.50
2019-04-11T01:56:31.919Z,40.50
2019-04-11T01:59:27.293Z,40.50
2019-04-11T02:02:59.048Z,40.30
2019-04-11T02:05:54.762Z,40.40
2019-04-11T02:08:49.949Z,40.30
2019-04-11T02:11:45.844Z,40.30
2019-04-11T02:14:41.742Z,40.30
2019-04-11T02:17:37.268Z,40.30
2019-04-11T02:20:33.338Z,40.20
2019-04-11T02:23:39.368Z,40.20
2019-04-11T02:26:37.609Z,40.20
2019-04-11T02:29:33.383Z,40.20
2019-04-11T02:32:29.285Z,40.20
2019-04-11T02:35:26.713Z,40.20
2019-04-11T02:38:23.295Z,40.10
2019-04-11T02:41:18.959Z,40.30
2019-04-11T02:44:32.018Z,40.10
2019-04-11T02:47:17.442Z,40.10
2019-04-11T02:50:08.116Z,40.10
2019-04-11T02:53:02.918Z,40.10
2019-04-11T02:56:00.439Z,39.90
2019-04-11T02:58:54.616Z,39.80
2019-04-11T03:01:50.954Z,39.80
2019-04-11T03:04:46.484Z,39.50
2019-04-11T03:07:42.645Z,39.30
2019-04-11T03:10:37.997Z,39.20
2019-04-11T03:13:34.968Z,39.10
2019-04-11T03:16:42.907Z,39.00
2019-04-11T03:19:37.471Z,38.50
2019-04-11T03:22:22.602Z,38.50
2019-04-11T03:25:17.824Z,37.70
2019-04-11T03:28:19.095Z,38.30
2019-04-11T03:31:50.250Z,38.30
2019-04-11T03:40:22.390Z,38.30
2019-04-11T03:43:08.841Z,38.10
2019-04-11T03:46:15.959Z,38.20
2019-04-11T03:48:59.937Z,38.10
2019-04-11T03:51:47.700Z,38.20
2019-04-11T03:54:42.694Z,38.30
2019-04-11T03:57:37.585Z,38.20
2019-04-11T04:00:36.349Z,37.90
2019-04-11T04:03:31.063Z,37.70
2019-04-11T04:06:28.683Z,37.30
2019-04-11T04:09:24.065Z,37.20
2019-04-11T04:12:20.880Z,37.00
2019-04-11T04:15:51.711Z,36.90
2019-04-11T04:18:47.687Z,36.80
2019-04-11T04:21:51.136Z,36.70
2019-04-11T04:24:47.516Z,36.50
2019-04-11T04:27:42.963Z,36.60
2019-04-11T04:30:38.979Z,36.60
2019-04-11T04:33:36.197Z,36.80
2019-04-11T04:36:31.283Z,36.80
2019-04-11T04:39:27.869Z,36.70
2019-04-11T04:42:31.071Z,36.60
2019-04-11T04:45:21.608Z,36.40
2019-04-11T04:48:22.448Z,36.20
2019-04-11T04:51:16.320Z,36.30
2019-04-11T04:54:12.113Z,36.40
2019-04-11T04:57:08.721Z,36.40
2019-04-11T05:00:04.971Z,36.40
2019-04-11T05:03:02.082Z,36.30
2019-04-11T05:05:56.088Z,36.30
2019-04-11T05:08:51.603Z,36.40
2019-04-11T05:11:48.602Z,36.10
2019-04-11T05:14:45.478Z,36.10
2019-04-11T05:17:43.936Z,36.00
2019-04-11T05:20:40.523Z,36.00
2019-04-11T05:23:41.750Z,35.60
2019-04-11T05:26:45.962Z,35.70
2019-04-11T05:29:43.920Z,36.00
2019-04-11T05:32:41.756Z,35.70
2019-04-11T05:35:39.479Z,35.60
2019-04-11T05:38:39.481Z,35.40
2019-04-11T05:41:35.699Z,35.30
2019-04-11T05:44:41.694Z,35.30
2019-04-11T05:47:57.076Z,35.30
2019-04-11T05:50:58.525Z,35.40
2019-04-11T05:54:09.168Z,35.50
2019-04-11T05:57:09.086Z,35.40
2019-04-11T06:00:13.851Z,35.10
2019-04-11T06:03:17.902Z,35.20
2019-04-11T06:06:36.406Z,35.20
2019-04-11T06:23:37.138Z,35.20
2019-04-11T06:27:13.860Z,33.60
2019-04-11T06:33:42.775Z,33.50
2019-04-11T06:41:39.302Z,33.80
2019-04-11T06:44:50.539Z,33.60
2019-04-11T06:48:24.791Z,33.40
2019-04-11T06:51:30.200Z,33.20
2019-04-11T06:54:41.336Z,32.90
2019-04-11T06:57:38.770Z,33.00
2019-04-11T07:00:42.053Z,32.80
2019-04-11T07:03:51.107Z,32.90
2019-04-11T07:08:42.468Z,32.90
2019-04-11T07:10:55.263Z,33.00
2019-04-11T07:14:08.188Z,33.00
2019-04-11T07:17:21.250Z,32.80
2019-04-11T07:20:35.628Z,32.50
2019-04-11T07:23:53.266Z,32.40
2019-04-11T07:26:54.686Z,32.00
2019-04-11T07:30:13.486Z,32.00
2019-04-11T07:33:27.126Z,31.90
2019-04-11T07:36:41.030Z,31.60
2019-04-11T07:40:00.971Z,31.60
2019-04-11T07:43:29.630Z,31.40
2019-04-11T07:47:13.679Z,31.20
2019-04-11T07:50:05.746Z,31.10
2019-04-11T07:53:04.984Z,30.70
2019-04-11T07:56:04.044Z,30.50
2019-04-11T07:59:07.231Z,30.50
2019-04-11T08:02:37.685Z,30.60
2019-04-11T08:10:03.402Z,30.20
2019-04-11T08:17:03.673Z,30.00
2019-04-11T08:20:37.473Z,29.70
2019-04-11T08:23:38.060Z,29.50
2019-04-11T08:27:11.348Z,29.60
2019-04-11T08:30:06.594Z,29.60
2019-04-11T08:33:18.249Z,29.30
2019-04-11T08:36:31.605Z,29.10
2019-04-11T08:39:55.468Z,29.20
2019-04-11T08:43:12.884Z,29.00
2019-04-11T08:46:27.433Z,28.50
2019-04-11T08:49:50.581Z,27.90
2019-04-11T08:53:00.601Z,27.80
2019-04-11T08:56:04.004Z,27.90
2019-04-11T09:00:10.200Z,28.20
2019-04-11T09:03:29.159Z,28.10
2019-04-11T09:06:31.004Z,28.10
2019-04-11T09:09:45.636Z,27.00
2019-04-11T09:12:44.783Z,26.30
2019-04-11T09:19:49.372Z,26.00
2019-04-11T09:22:57.618Z,25.70
2019-04-11T09:26:10.332Z,25.50
2019-04-11T09:29:08.253Z,25.60
2019-04-11T09:32:20.165Z,25.00
2019-04-11T09:35:27.219Z,24.30
2019-04-11T09:38:42.873Z,23.80
2019-04-11T09:42:47.635Z,23.70
2019-04-11T09:46:01.941Z,23.00
2019-04-11T09:49:18.477Z,23.10
2019-04-11T09:52:27.381Z,22.90
2019-04-11T09:55:41.703Z,22.70
2019-04-11T09:58:44.191Z,22.60
2019-04-11T10:02:08.081Z,22.50
2019-04-11T10:05:09.587Z,22.30
2019-04-11T10:08:39.612Z,22.10
2019-04-11T10:15:27.794Z,21.60
2019-04-11T10:18:59.823Z,21.40
2019-04-11T10:22:29.105Z,21.50
2019-04-11T10:25:43.262Z,21.80
2019-04-11T10:29:06.421Z,21.90
2019-04-11T10:32:12.766Z,21.60
2019-04-11T10:35:32.441Z,21.50
2019-04-11T10:38:32.942Z,21.60
2019-04-11T10:41:47.621Z,21.80
2019-04-11T10:45:12.690Z,21.70
2019-04-11T10:48:23.759Z,21.60
2019-04-11T10:51:48.017Z,21.80
2019-04-11T10:55:15.715Z,21.50
2019-04-11T10:58:42.672Z,21.30
2019-04-11T11:02:12.815Z,21.30
2019-04-11T11:05:30.440Z,21.40
2019-04-11T11:09:28.324Z,21.40
2019-04-11T11:12:29.577Z,21.50
2019-04-11T11:15:31.652Z,21.10
2019-04-11T11:19:24.612Z,20.30
2019-04-11T11:22:03.876Z,20.00
2019-04-11T11:25:15.341Z,19.30
2019-04-11T11:28:05.426Z,19.30
2019-04-11T11:31:22.395Z,19.30
2019-04-11T11:34:24.703Z,19.00
2019-04-11T11:37:47.097Z,19.00
2019-04-11T11:41:20.586Z,19.00
2019-04-11T11:44:19.254Z,19.40
2019-04-11T11:47:53.930Z,19.80
2019-04-11T11:50:50.585Z,19.80
2019-04-11T11:53:58.117Z,19.80
2019-04-11T11:56:56.450Z,20.00
2019-04-11T11:59:58.736Z,19.70
2019-04-11T12:03:03.290Z,19.90
2019-04-11T12:06:03.061Z,20.10
2019-04-11T12:09:36.340Z,20.20
2019-04-11T12:12:40.066Z,20.50
2019-04-11T12:16:16.078Z,20.40
2019-04-11T12:19:19.637Z,19.70
2019-04-11T13:07:36.736Z,21.30
2019-04-11T13:10:35.236Z,22.10
2019-04-11T13:13:35.864Z,22.00
2019-04-11T13:16:30.554Z,21.90
2019-04-11T13:20:03.978Z,21.50
2019-04-11T13:22:49.126Z,21.00
2019-04-11T13:26:00.818Z,20.80
2019-04-11T13:29:26.324Z,21.10
2019-04-11T13:32:52.947Z,21.20
2019-04-11T13:36:02.671Z,21.50
2019-04-11T13:39:02.381Z,21.50
2019-04-11T13:42:00.582Z,21.60
2019-04-11T13:44:55.817Z,21.60
2019-04-11T13:48:27.810Z,21.80
2019-04-11T13:51:35.143Z,21.80
2019-04-11T13:54:47.324Z,21.80
2019-04-11T13:58:00.195Z,22.40
2019-04-11T14:00:57.387Z,22.80
2019-04-11T14:04:12.832Z,22.60
2019-04-11T14:07:08.804Z,22.50
2019-04-11T14:10:04.911Z,22.30
2019-04-11T14:13:01.086Z,22.50
2019-04-11T14:15:58.400Z,22.50
2019-04-11T14:19:06.987Z,22.60
2019-04-11T14:22:00.194Z,22.70
2019-04-11T14:25:05.613Z,22.90
2019-04-11T14:28:02.551Z,23.00
2019-04-11T14:31:25.410Z,23.20
2019-04-11T14:34:57.026Z,23.30
2019-04-11T14:38:01.000Z,23.40
2019-04-11T14:41:14.331Z,23.50
2019-04-11T14:44:10.530Z,23.60
2019-04-11T14:47:24.817Z,23.70
2019-04-11T14:50:22.051Z,23.80
2019-04-11T14:53:33.635Z,23.90
2019-04-11T14:56:30.619Z,24.00
2019-04-11T14:59:32.912Z,24.00
2019-04-11T15:02:49.310Z,24.10
2019-04-11T15:05:51.990Z,24.20
2019-04-11T15:09:03.887Z,24.20
2019-04-11T15:12:19.374Z,24.20
2019-04-11T15:15:36.497Z,24.30
2019-04-11T15:18:37.116Z,24.40
2019-04-11T15:21:49.026Z,24.50
2019-04-11T15:24:46.314Z,24.50
2019-04-11T15:28:12.401Z,24.60
2019-04-11T15:31:13.652Z,24.60
2019-04-11T15:34:33.347Z,24.70
2019-04-11T15:37:49.643Z,24.90
2019-04-11T15:40:49.086Z,25.20
2019-04-11T15:44:01.459Z,25.50
2019-04-11T15:47:01.055Z,25.60
2019-04-11T15:50:15.839Z,25.70
2019-04-11T15:53:12.065Z,26.10
2019-04-11T15:56:28.063Z,26.30
2019-04-11T15:59:47.131Z,26.40
2019-04-11T16:03:10.509Z,26.40
2019-04-11T16:06:22.296Z,26.60
2019-04-11T16:09:21.422Z,26.80
2019-04-11T16:12:26.593Z,27.00
2019-04-11T16:15:23.294Z,27.20
2019-04-11T16:18:36.662Z,27.40
2019-04-11T16:21:44.696Z,27.70
2019-04-11T16:24:40.447Z,27.70
2019-04-11T16:28:09.027Z,27.60
2019-04-11T16:31:04.550Z,27.30
2019-04-11T16:34:17.323Z,27.20
2019-04-11T16:37:17.515Z,27.40
2019-04-11T16:40:26.007Z,27.60
2019-04-11T16:43:24.355Z,27.70
2019-04-11T16:46:54.899Z,27.80
2019-04-11T16:49:48.841Z,27.80
2019-04-11T16:52:44.639Z,28.10
2019-04-11T16:55:43.157Z,28.40
2019-04-11T16:58:36.703Z,27.90
2019-04-11T17:01:33.001Z,28.30
2019-04-11T17:04:30.449Z,28.10
2019-04-11T17:07:50.783Z,27.60
2019-04-11T17:11:05.185Z,27.40
2019-04-11T17:14:02.135Z,27.40
2019-04-11T17:17:00.610Z,27.20
2019-04-11T17:19:54.381Z,27.20
2019-04-11T17:22:50.063Z,27.10
2019-04-11T17:25:48.069Z,27.30
2019-04-11T17:28:43.437Z,27.80
2019-04-11T17:31:38.889Z,28.10
2019-04-11T17:34:34.351Z,27.90
2019-04-11T17:37:33.196Z,27.90
2019-04-11T17:40:28.606Z,28.00
2019-04-11T17:43:24.962Z,27.90
2019-04-11T17:46:20.878Z,28.00
2019-04-11T17:49:16.832Z,28.10
2019-04-11T17:52:13.753Z,28.10
2019-04-11T17:55:09.751Z,28.10
2019-04-11T17:58:05.828Z,28.10
2019-04-11T18:01:05.220Z,28.20
2019-04-11T18:03:59.295Z,28.30
2019-04-11T18:06:54.976Z,28.20
2019-04-11T18:09:50.993Z,28.20
2019-04-11T18:12:47.452Z,28.10
2019-04-11T18:15:42.918Z,28.10
2019-04-11T18:18:38.230Z,28.00
2019-04-11T18:21:34.907Z,28.00
2019-04-11T18:24:32.547Z,27.90
2019-04-11T18:27:28.177Z,27.90
2019-04-11T18:30:24.335Z,27.90
2019-04-11T18:33:19.558Z,27.90
2019-04-11T18:36:15.788Z,28.00
2019-04-11T18:39:12.087Z,28.00
2019-04-11T18:42:08.710Z,28.00
2019-04-11T18:45:04.450Z,27.90
2019-04-11T18:47:59.790Z,28.10
2019-04-11T18:50:55.196Z,28.00
2019-04-11T18:53:51.543Z,27.80
2019-04-11T18:56:47.240Z,27.80
2019-04-11T18:59:42.800Z,27.50
2019-04-11T19:02:40.255Z,27.30
2019-04-11T19:05:34.530Z,27.20
2019-04-11T19:08:29.970Z,27.20
2019-04-11T19:11:26.047Z,27.10
2019-04-11T19:14:24.591Z,27.00
2019-04-11T19:17:18.688Z,26.90
2019-04-11T19:20:14.463Z,27.00
2019-04-11T19:23:10.162Z,27.10
2019-04-11T19:26:06.405Z,27.20
2019-04-11T19:29:02.220Z,27.40
2019-04-11T19:31:58.205Z,27.40
2019-04-11T19:34:54.285Z,27.60
2019-04-11T19:37:50.072Z,27.80
2019-04-11T19:40:47.117Z,27.70
2019-04-11T19:43:41.372Z,27.80
2019-04-11T19:46:37.009Z,28.00
2019-04-11T19:49:32.878Z,28.30
2019-04-11T19:52:29.857Z,28.50
2019-04-11T19:55:37.319Z,28.70
2019-04-11T19:58:32.776Z,28.90
2019-04-11T20:01:28.416Z,29.00
2019-04-11T20:04:24.685Z,29.10
2019-04-11T20:07:20.441Z,28.70
2019-04-11T20:10:15.826Z,29.30
2019-04-11T20:13:11.282Z,29.50
2019-04-11T20:16:07.672Z,29.70
2019-04-11T20:19:03.285Z,30.30
2019-04-11T20:21:58.913Z,30.00
2019-04-11T20:24:54.223Z,30.10
2019-04-11T20:27:51.278Z,30.30
2019-04-11T20:30:46.841Z,30.40
2019-04-11T20:33:42.691Z,30.60
2019-04-11T20:36:40.822Z,30.80
2019-04-11T20:39:34.648Z,30.80
2019-04-11T20:42:30.651Z,30.90
2019-04-11T20:45:28.529Z,30.90
2019-04-11T20:48:23.494Z,30.90
2019-04-11T20:51:19.062Z,31.00
2019-04-11T20:54:14.646Z,31.10
2019-04-11T20:57:12.226Z,31.20
2019-04-11T21:00:07.078Z,31.20
2019-04-11T21:03:02.781Z,31.40
2019-04-11T21:05:59.050Z,31.30
2019-04-11T21:08:53.900Z,31.40
2019-04-11T21:11:50.384Z,31.40
2019-04-11T21:14:46.158Z,31.40
2019-04-11T21:17:42.731Z,31.50
2019-04-11T21:20:39.664Z,31.50
2019-04-11T21:23:34.237Z,31.70
2019-04-11T21:26:29.860Z,31.70
2019-04-11T21:29:25.728Z,31.90
2019-04-11T21:32:21.119Z,32.20
2019-04-11T21:35:16.815Z,32.40
2019-04-11T21:38:12.340Z,32.60
2019-04-11T21:41:08.243Z,32.70
2019-04-11T21:44:05.832Z,32.70
2019-04-11T21:47:00.479Z,32.90
2019-04-11T21:49:56.288Z,33.00
2019-04-11T21:52:51.795Z,33.10
2019-04-11T21:55:47.818Z,33.10
2019-04-11T21:58:43.952Z,32.90
2019-04-11T22:01:40.294Z,33.10
2019-04-11T22:04:35.670Z,33.20
2019-04-11T22:07:31.590Z,33.10
2019-04-11T22:10:27.068Z,33.20
2019-04-11T22:13:22.425Z,33.20
2019-04-11T22:16:18.142Z,33.30
2019-04-11T22:19:14.361Z,32.50
2019-04-11T22:22:09.801Z,33.30
2019-04-11T22:25:05.384Z,33.50
2019-04-11T22:28:01.120Z,33.60
2019-04-11T22:30:57.229Z,33.70
2019-04-11T22:34:10.584Z,33.70
2019-04-11T22:37:05.263Z,33.50
2019-04-11T22:40:02.076Z,33.30
2019-04-11T22:42:57.802Z,33.30
2019-04-11T22:45:53.357Z,33.40
2019-04-11T22:48:48.877Z,33.30
2019-04-11T22:51:44.614Z,33.20
2019-04-11T22:54:41.805Z,33.30
2019-04-11T22:57:37.867Z,33.30
2019-04-11T23:00:33.818Z,33.40
2019-04-11T23:03:37.189Z,33.50
2019-04-11T23:06:33.337Z,33.50
2019-04-11T23:09:29.349Z,33.50
2019-04-11T23:12:25.508Z,33.60
2019-04-11T23:15:21.434Z,33.50
2019-04-11T23:18:17.614Z,33.70
2019-04-11T23:21:14.374Z,33.80
2019-04-11T23:24:12.045Z,33.70
2019-04-11T23:27:07.279Z,33.50
2019-04-11T23:30:03.126Z,33.70
2019-04-11T23:32:59.648Z,33.80
2019-04-11T23:35:55.509Z,33.80
2019-04-11T23:38:52.702Z,33.90
2019-04-11T23:41:49.676Z,34.10
2019-04-11T23:44:43.687Z,34.10
2019-04-11T23:47:39.918Z,34.20
2019-04-11T23:50:35.500Z,34.20
2019-04-11T23:53:31.378Z,34.20
2019-04-11T23:56:30.130Z,34.30
2019-04-11T23:59:24.470Z,34.50
